sensor_id;sensor_type;location;lat;lon;timestamp;P1;durP1;ratioP1;P2;durP2;ratioP2
1949;SDS011;975;48.760;9.152;2023-09-08T00:02:44;5.97;;;3.47;;
1949;SDS011;975;48.760;9.152;2023-09-08T00:05:32;6.90;;;3.95;;
1949;SDS011;975;48.760;9.152;2023-09-08T00:08:19;5.47;;;3.35;;
1949;SDS011;975;48.760;9.152;2023-09-08T00:11:10;8.02;;;4.05;;
1949;SDS011;975;48.760;9.152;2023-09-08T00:13:58;5.22;;;3.40;;
1949;SDS011;975;48.760;9.152;2023-09-08T00:16:46;5.10;;;3.22;;
1949;SDS011;975;48.760;9.152;2023-09-08T00:19:35;6.40;;;3.80;;
1949;SDS011;975;48.760;9.152;2023-09-08T00:22:24;7.15;;;3.60;;
1949;SDS011;975;48.760;9.152;2023-09-08T00:25:11;7.45;;;3.53;;
1949;SDS011;975;48.760;9.152;2023-09-08T00:27:59;5.40;;;3.65;;
1949;SDS011;975;48.760;9.152;2023-09-08T00:30:50;5.35;;;3.85;;
1949;SDS011;975;48.760;9.152;2023-09-08T00:33:41;6.80;;;4.00;;
1949;SDS011;975;48.760;9.152;2023-09-08T00:36:31;5.95;;;3.85;;
1949;SDS011;975;48.760;9.152;2023-09-08T00:39:19;6.82;;;4.00;;
1949;SDS011;975;48.760;9.152;2023-09-08T00:42:06;4.72;;;3.65;;
1949;SDS011;975;48.760;9.152;2023-09-08T00:44:54;5.65;;;3.90;;
1949;SDS011;975;48.760;9.152;2023-09-08T00:47:44;7.22;;;3.72;;
1949;SDS011;975;48.760;9.152;2023-09-08T00:50:32;6.53;;;4.05;;
1949;SDS011;975;48.760;9.152;2023-09-08T00:53:29;6.53;;;3.80;;
1949;SDS011;975;48.760;9.152;2023-09-08T00:56:17;5.75;;;3.40;;
1949;SDS011;975;48.760;9.152;2023-09-08T00:59:05;5.47;;;3.78;;
1949;SDS011;975;48.760;9.152;2023-09-08T01:01:53;5.35;;;3.38;;
1949;SDS011;975;48.760;9.152;2023-09-08T01:04:41;5.80;;;3.45;;
1949;SDS011;975;48.760;9.152;2023-09-08T01:07:32;6.20;;;3.78;;
1949;SDS011;975;48.760;9.152;2023-09-08T01:10:22;6.28;;;3.97;;
1949;SDS011;975;48.760;9.152;2023-09-08T01:13:10;9.10;;;3.65;;
1949;SDS011;975;48.760;9.152;2023-09-08T01:15:58;6.60;;;3.72;;
1949;SDS011;975;48.760;9.152;2023-09-08T01:18:52;6.68;;;4.28;;
1949;SDS011;975;48.760;9.152;2023-09-08T01:21:44;5.68;;;3.72;;
1949;SDS011;975;48.760;9.152;2023-09-08T01:24:40;7.10;;;3.53;;
1949;SDS011;975;48.760;9.152;2023-09-08T01:27:33;6.50;;;3.70;;
1949;SDS011;975;48.760;9.152;2023-09-08T01:30:23;9.05;;;4.03;;
1949;SDS011;975;48.760;9.152;2023-09-08T01:33:11;6.30;;;4.03;;
1949;SDS011;975;48.760;9.152;2023-09-08T01:35:59;5.47;;;3.78;;
1949;SDS011;975;48.760;9.152;2023-09-08T01:38:47;6.15;;;3.80;;
1949;SDS011;975;48.760;9.152;2023-09-08T01:41:35;8.25;;;3.95;;
1949;SDS011;975;48.760;9.152;2023-09-08T01:44:24;5.32;;;3.72;;
1949;SDS011;975;48.760;9.152;2023-09-08T01:47:12;5.60;;;3.95;;
1949;SDS011;975;48.760;9.152;2023-09-08T01:50:00;7.80;;;3.65;;
1949;SDS011;975;48.760;9.152;2023-09-08T01:52:48;5.82;;;3.75;;
1949;SDS011;975;48.760;9.152;2023-09-08T01:55:36;8.32;;;4.20;;
1949;SDS011;975;48.760;9.152;2023-09-08T01:58:23;5.90;;;3.83;;
1949;SDS011;975;48.760;9.152;2023-09-08T02:01:13;5.13;;;3.88;;
1949;SDS011;975;48.760;9.152;2023-09-08T02:04:01;5.25;;;3.70;;
1949;SDS011;975;48.760;9.152;2023-09-08T02:06:49;6.82;;;3.17;;
1949;SDS011;975;48.760;9.152;2023-09-08T02:09:37;6.60;;;4.28;;
1949;SDS011;975;48.760;9.152;2023-09-08T02:12:25;6.03;;;3.72;;
1949;SDS011;975;48.760;9.152;2023-09-08T02:15:13;9.18;;;3.80;;
1949;SDS011;975;48.760;9.152;2023-09-08T02:18:03;7.68;;;3.58;;
1949;SDS011;975;48.760;9.152;2023-09-08T02:20:51;4.88;;;3.55;;
1949;SDS011;975;48.760;9.152;2023-09-08T02:23:44;6.25;;;3.97;;
1949;SDS011;975;48.760;9.152;2023-09-08T02:26:32;7.95;;;4.25;;
1949;SDS011;975;48.760;9.152;2023-09-08T02:29:20;10.23;;;3.90;;
1949;SDS011;975;48.760;9.152;2023-09-08T02:32:08;5.95;;;3.67;;
1949;SDS011;975;48.760;9.152;2023-09-08T02:34:57;6.78;;;4.18;;
1949;SDS011;975;48.760;9.152;2023-09-08T02:37:45;10.60;;;3.95;;
1949;SDS011;975;48.760;9.152;2023-09-08T02:40:36;9.43;;;4.07;;
1949;SDS011;975;48.760;9.152;2023-09-08T02:43:24;7.68;;;3.78;;
1949;SDS011;975;48.760;9.152;2023-09-08T02:46:13;5.95;;;3.80;;
1949;SDS011;975;48.760;9.152;2023-09-08T02:49:00;9.57;;;4.00;;
1949;SDS011;975;48.760;9.152;2023-09-08T02:51:50;5.55;;;3.38;;
1949;SDS011;975;48.760;9.152;2023-09-08T02:54:38;6.18;;;3.85;;
1949;SDS011;975;48.760;9.152;2023-09-08T02:57:26;5.88;;;4.05;;
1949;SDS011;975;48.760;9.152;2023-09-08T03:00:14;5.32;;;3.78;;
1949;SDS011;975;48.760;9.152;2023-09-08T03:03:02;8.05;;;3.50;;
1949;SDS011;975;48.760;9.152;2023-09-08T03:05:53;6.60;;;3.85;;
1949;SDS011;975;48.760;9.152;2023-09-08T03:08:43;6.95;;;3.55;;
1949;SDS011;975;48.760;9.152;2023-09-08T03:11:31;7.68;;;3.90;;
1949;SDS011;975;48.760;9.152;2023-09-08T03:14:19;7.60;;;4.00;;
1949;SDS011;975;48.760;9.152;2023-09-08T03:17:07;4.65;;;3.40;;
1949;SDS011;975;48.760;9.152;2023-09-08T03:19:55;6.28;;;3.83;;
1949;SDS011;975;48.760;9.152;2023-09-08T03:22:44;4.93;;;3.50;;
1949;SDS011;975;48.760;9.152;2023-09-08T03:25:33;5.15;;;3.60;;
1949;SDS011;975;48.760;9.152;2023-09-08T03:28:21;6.70;;;3.50;;
1949;SDS011;975;48.760;9.152;2023-09-08T03:31:09;6.85;;;4.18;;
1949;SDS011;975;48.760;9.152;2023-09-08T03:33:57;5.85;;;3.78;;
1949;SDS011;975;48.760;9.152;2023-09-08T03:36:45;6.03;;;3.65;;
1949;SDS011;975;48.760;9.152;2023-09-08T03:39:32;5.97;;;3.95;;
1949;SDS011;975;48.760;9.152;2023-09-08T03:42:22;6.18;;;3.92;;
1949;SDS011;975;48.760;9.152;2023-09-08T03:45:09;5.78;;;3.50;;
1949;SDS011;975;48.760;9.152;2023-09-08T03:48:00;8.82;;;3.70;;
1949;SDS011;975;48.760;9.152;2023-09-08T03:50:48;5.78;;;3.88;;
1949;SDS011;975;48.760;9.152;2023-09-08T03:53:36;6.75;;;4.00;;
1949;SDS011;975;48.760;9.152;2023-09-08T03:56:24;6.20;;;3.47;;
1949;SDS011;975;48.760;9.152;2023-09-08T03:59:13;5.45;;;3.50;;
1949;SDS011;975;48.760;9.152;2023-09-08T04:02:01;6.50;;;3.58;;
1949;SDS011;975;48.760;9.152;2023-09-08T04:04:48;5.68;;;3.97;;
1949;SDS011;975;48.760;9.152;2023-09-08T04:07:39;5.18;;;3.10;;
1949;SDS011;975;48.760;9.152;2023-09-08T04:10:27;5.85;;;3.90;;
1949;SDS011;975;48.760;9.152;2023-09-08T04:13:15;5.30;;;3.53;;
1949;SDS011;975;48.760;9.152;2023-09-08T04:16:05;5.45;;;3.85;;
1949;SDS011;975;48.760;9.152;2023-09-08T04:18:53;9.88;;;3.55;;
1949;SDS011;975;48.760;9.152;2023-09-08T04:21:41;6.03;;;4.10;;
1949;SDS011;975;48.760;9.152;2023-09-08T04:24:29;6.53;;;4.00;;
1949;SDS011;975;48.760;9.152;2023-09-08T04:27:16;5.75;;;3.72;;
1949;SDS011;975;48.760;9.152;2023-09-08T04:30:10;5.47;;;3.72;;
1949;SDS011;975;48.760;9.152;2023-09-08T04:33:02;7.85;;;4.00;;
1949;SDS011;975;48.760;9.152;2023-09-08T04:35:50;6.95;;;4.00;;
1949;SDS011;975;48.760;9.152;2023-09-08T04:38:41;6.63;;;4.15;;
1949;SDS011;975;48.760;9.152;2023-09-08T04:41:30;7.22;;;3.67;;
1949;SDS011;975;48.760;9.152;2023-09-08T04:44:18;7.50;;;3.95;;
1949;SDS011;975;48.760;9.152;2023-09-08T04:47:05;9.63;;;3.70;;
1949;SDS011;975;48.760;9.152;2023-09-08T04:49:55;5.78;;;4.15;;
1949;SDS011;975;48.760;9.152;2023-09-08T04:52:43;5.35;;;3.90;;
1949;SDS011;975;48.760;9.152;2023-09-08T04:55:30;9.32;;;4.35;;
1949;SDS011;975;48.760;9.152;2023-09-08T04:58:18;6.47;;;4.03;;
1949;SDS011;975;48.760;9.152;2023-09-08T05:01:06;7.85;;;4.05;;
1949;SDS011;975;48.760;9.152;2023-09-08T05:03:54;8.80;;;4.35;;
1949;SDS011;975;48.760;9.152;2023-09-08T05:06:43;7.68;;;4.65;;
1949;SDS011;975;48.760;9.152;2023-09-08T05:09:31;7.82;;;3.95;;
1949;SDS011;975;48.760;9.152;2023-09-08T05:12:20;6.93;;;4.20;;
1949;SDS011;975;48.760;9.152;2023-09-08T05:15:09;6.95;;;4.05;;
1949;SDS011;975;48.760;9.152;2023-09-08T05:18:00;8.50;;;4.45;;
1949;SDS011;975;48.760;9.152;2023-09-08T05:20:48;7.68;;;4.93;;
1949;SDS011;975;48.760;9.152;2023-09-08T05:23:38;5.47;;;3.90;;
1949;SDS011;975;48.760;9.152;2023-09-08T05:26:25;7.75;;;4.03;;
1949;SDS011;975;48.760;9.152;2023-09-08T05:29:13;9.77;;;4.80;;
1949;SDS011;975;48.760;9.152;2023-09-08T05:32:01;7.93;;;3.80;;
1949;SDS011;975;48.760;9.152;2023-09-08T05:34:49;6.50;;;4.03;;
1949;SDS011;975;48.760;9.152;2023-09-08T05:37:37;10.10;;;4.85;;
1949;SDS011;975;48.760;9.152;2023-09-08T05:40:28;7.85;;;4.68;;
1949;SDS011;975;48.760;9.152;2023-09-08T05:43:16;8.25;;;4.68;;
1949;SDS011;975;48.760;9.152;2023-09-08T05:46:04;7.53;;;4.10;;
1949;SDS011;975;48.760;9.152;2023-09-08T05:48:52;8.93;;;5.13;;
1949;SDS011;975;48.760;9.152;2023-09-08T05:51:43;6.38;;;4.32;;
1949;SDS011;975;48.760;9.152;2023-09-08T05:54:31;8.25;;;5.03;;
1949;SDS011;975;48.760;9.152;2023-09-08T05:57:20;6.82;;;4.50;;
1949;SDS011;975;48.760;9.152;2023-09-08T06:00:08;14.13;;;4.53;;
1949;SDS011;975;48.760;9.152;2023-09-08T06:02:58;10.27;;;4.82;;
1949;SDS011;975;48.760;9.152;2023-09-08T06:05:46;7.88;;;4.50;;
1949;SDS011;975;48.760;9.152;2023-09-08T06:08:36;11.20;;;5.80;;
1949;SDS011;975;48.760;9.152;2023-09-08T06:11:24;7.18;;;3.95;;
1949;SDS011;975;48.760;9.152;2023-09-08T06:14:13;10.23;;;5.63;;
1949;SDS011;975;48.760;9.152;2023-09-08T06:17:01;8.13;;;5.10;;
1949;SDS011;975;48.760;9.152;2023-09-08T06:19:49;10.52;;;5.95;;
1949;SDS011;975;48.760;9.152;2023-09-08T06:22:37;10.23;;;6.20;;
1949;SDS011;975;48.760;9.152;2023-09-08T06:25:26;8.40;;;5.22;;
1949;SDS011;975;48.760;9.152;2023-09-08T06:28:15;9.18;;;5.22;;
1949;SDS011;975;48.760;9.152;2023-09-08T06:31:05;12.55;;;6.78;;
1949;SDS011;975;48.760;9.152;2023-09-08T06:33:53;8.90;;;4.72;;
1949;SDS011;975;48.760;9.152;2023-09-08T06:36:40;8.45;;;4.85;;
1949;SDS011;975;48.760;9.152;2023-09-08T06:39:28;7.80;;;4.60;;
1949;SDS011;975;48.760;9.152;2023-09-08T06:42:19;6.93;;;4.32;;
1949;SDS011;975;48.760;9.152;2023-09-08T06:45:07;10.50;;;5.20;;
1949;SDS011;975;48.760;9.152;2023-09-08T06:47:57;7.88;;;4.70;;
1949;SDS011;975;48.760;9.152;2023-09-08T06:50:45;12.68;;;5.30;;
1949;SDS011;975;48.760;9.152;2023-09-08T06:53:36;8.70;;;4.40;;
1949;SDS011;975;48.760;9.152;2023-09-08T06:56:24;8.95;;;5.25;;
1949;SDS011;975;48.760;9.152;2023-09-08T06:59:12;8.57;;;4.93;;
1949;SDS011;975;48.760;9.152;2023-09-08T07:02:00;9.77;;;5.13;;
1949;SDS011;975;48.760;9.152;2023-09-08T07:04:52;11.85;;;5.68;;
1949;SDS011;975;48.760;9.152;2023-09-08T07:07:40;9.30;;;5.03;;
1949;SDS011;975;48.760;9.152;2023-09-08T07:10:28;12.43;;;5.07;;
1949;SDS011;975;48.760;9.152;2023-09-08T07:13:15;8.00;;;5.18;;
1949;SDS011;975;48.760;9.152;2023-09-08T07:16:03;10.38;;;5.63;;
1949;SDS011;975;48.760;9.152;2023-09-08T07:18:51;7.43;;;5.28;;
1949;SDS011;975;48.760;9.152;2023-09-08T07:21:43;9.82;;;6.03;;
1949;SDS011;975;48.760;9.152;2023-09-08T07:24:31;7.85;;;5.15;;
1949;SDS011;975;48.760;9.152;2023-09-08T07:27:18;9.93;;;5.80;;
1949;SDS011;975;48.760;9.152;2023-09-08T07:30:07;10.15;;;5.38;;
1949;SDS011;975;48.760;9.152;2023-09-08T07:32:55;8.10;;;5.57;;
1949;SDS011;975;48.760;9.152;2023-09-08T07:35:43;10.43;;;5.90;;
1949;SDS011;975;48.760;9.152;2023-09-08T07:38:33;8.85;;;6.10;;
1949;SDS011;975;48.760;9.152;2023-09-08T07:41:20;8.18;;;5.57;;
1949;SDS011;975;48.760;9.152;2023-09-08T07:44:09;9.15;;;5.82;;
1949;SDS011;975;48.760;9.152;2023-09-08T07:46:57;8.70;;;5.75;;
1949;SDS011;975;48.760;9.152;2023-09-08T07:49:45;9.07;;;5.68;;
1949;SDS011;975;48.760;9.152;2023-09-08T07:52:34;11.27;;;5.60;;
1949;SDS011;975;48.760;9.152;2023-09-08T07:55:23;8.40;;;5.38;;
1949;SDS011;975;48.760;9.152;2023-09-08T07:58:13;10.90;;;5.75;;
1949;SDS011;975;48.760;9.152;2023-09-08T08:01:00;11.38;;;5.75;;
1949;SDS011;975;48.760;9.152;2023-09-08T08:03:48;9.70;;;6.03;;
1949;SDS011;975;48.760;9.152;2023-09-08T08:06:38;11.98;;;5.53;;
1949;SDS011;975;48.760;9.152;2023-09-08T08:09:29;9.82;;;5.70;;
1949;SDS011;975;48.760;9.152;2023-09-08T08:12:18;9.13;;;5.20;;
1949;SDS011;975;48.760;9.152;2023-09-08T08:15:09;8.25;;;4.70;;
1949;SDS011;975;48.760;9.152;2023-09-08T08:18:00;8.60;;;5.63;;
1949;SDS011;975;48.760;9.152;2023-09-08T08:20:48;11.23;;;5.50;;
1949;SDS011;975;48.760;9.152;2023-09-08T08:23:36;9.43;;;5.47;;
1949;SDS011;975;48.760;9.152;2023-09-08T08:26:24;8.93;;;5.28;;
1949;SDS011;975;48.760;9.152;2023-09-08T08:29:20;10.05;;;5.82;;
1949;SDS011;975;48.760;9.152;2023-09-08T08:32:08;8.40;;;5.20;;
1949;SDS011;975;48.760;9.152;2023-09-08T08:35:04;11.98;;;5.85;;
1949;SDS011;975;48.760;9.152;2023-09-08T08:37:57;12.52;;;6.05;;
1949;SDS011;975;48.760;9.152;2023-09-08T08:41:04;6.47;;;4.63;;
1949;SDS011;975;48.760;9.152;2023-09-08T08:43:52;10.38;;;5.50;;
1949;SDS011;975;48.760;9.152;2023-09-08T08:46:42;9.27;;;5.53;;
1949;SDS011;975;48.760;9.152;2023-09-08T08:49:30;7.25;;;5.20;;
1949;SDS011;975;48.760;9.152;2023-09-08T08:52:19;10.38;;;4.57;;
1949;SDS011;975;48.760;9.152;2023-09-08T08:55:07;8.77;;;5.13;;
1949;SDS011;975;48.760;9.152;2023-09-08T08:58:00;8.75;;;5.00;;
1949;SDS011;975;48.760;9.152;2023-09-08T09:00:52;7.78;;;4.90;;
1949;SDS011;975;48.760;9.152;2023-09-08T09:03:44;7.82;;;5.45;;
1949;SDS011;975;48.760;9.152;2023-09-08T09:06:34;9.35;;;4.93;;
1949;SDS011;975;48.760;9.152;2023-09-08T09:09:22;9.93;;;5.93;;
1949;SDS011;975;48.760;9.152;2023-09-08T09:12:10;11.07;;;5.53;;
1949;SDS011;975;48.760;9.152;2023-09-08T09:14:58;7.85;;;5.18;;
1949;SDS011;975;48.760;9.152;2023-09-08T09:17:50;8.68;;;5.22;;
1949;SDS011;975;48.760;9.152;2023-09-08T09:23:37;10.20;;;5.13;;
1949;SDS011;975;48.760;9.152;2023-09-08T09:29:13;7.25;;;5.07;;
1949;SDS011;975;48.760;9.152;2023-09-08T09:32:02;8.18;;;5.15;;
1949;SDS011;975;48.760;9.152;2023-09-08T09:34:50;8.73;;;4.70;;
1949;SDS011;975;48.760;9.152;2023-09-08T09:37:40;11.50;;;4.90;;
1949;SDS011;975;48.760;9.152;2023-09-08T09:40:29;7.15;;;4.90;;
1949;SDS011;975;48.760;9.152;2023-09-08T09:43:22;6.60;;;4.65;;
1949;SDS011;975;48.760;9.152;2023-09-08T09:46:10;9.15;;;4.32;;
1949;SDS011;975;48.760;9.152;2023-09-08T09:48:57;7.75;;;4.88;;
1949;SDS011;975;48.760;9.152;2023-09-08T09:51:46;10.13;;;5.47;;
1949;SDS011;975;48.760;9.152;2023-09-08T09:54:35;9.30;;;5.13;;
1949;SDS011;975;48.760;9.152;2023-09-08T09:57:24;7.85;;;4.95;;
1949;SDS011;975;48.760;9.152;2023-09-08T10:00:13;8.23;;;5.00;;
1949;SDS011;975;48.760;9.152;2023-09-08T10:03:02;8.38;;;5.20;;
1949;SDS011;975;48.760;9.152;2023-09-08T10:05:51;9.95;;;5.68;;
1949;SDS011;975;48.760;9.152;2023-09-08T10:08:38;8.18;;;5.38;;
1949;SDS011;975;48.760;9.152;2023-09-08T10:11:28;10.65;;;4.85;;
1949;SDS011;975;48.760;9.152;2023-09-08T10:14:20;9.27;;;5.68;;
1949;SDS011;975;48.760;9.152;2023-09-08T10:17:10;9.10;;;5.30;;
1949;SDS011;975;48.760;9.152;2023-09-08T10:20:03;7.05;;;5.07;;
1949;SDS011;975;48.760;9.152;2023-09-08T10:22:59;7.38;;;5.13;;
1949;SDS011;975;48.760;9.152;2023-09-08T10:25:52;8.40;;;5.38;;
1949;SDS011;975;48.760;9.152;2023-09-08T10:28:41;8.77;;;4.82;;
1949;SDS011;975;48.760;9.152;2023-09-08T10:31:31;11.40;;;5.80;;
1949;SDS011;975;48.760;9.152;2023-09-08T10:37:17;9.52;;;4.82;;
1949;SDS011;975;48.760;9.152;2023-09-08T10:40:21;7.00;;;4.75;;
1949;SDS011;975;48.760;9.152;2023-09-08T10:43:09;6.82;;;5.05;;
1949;SDS011;975;48.760;9.152;2023-09-08T10:45:57;6.80;;;4.97;;
1949;SDS011;975;48.760;9.152;2023-09-08T10:48:46;6.72;;;5.05;;
1949;SDS011;975;48.760;9.152;2023-09-08T10:51:34;9.82;;;5.05;;
1949;SDS011;975;48.760;9.152;2023-09-08T10:54:40;9.27;;;4.68;;
1949;SDS011;975;48.760;9.152;2023-09-08T10:57:28;7.25;;;5.03;;
1949;SDS011;975;48.760;9.152;2023-09-08T11:00:18;8.38;;;4.50;;
1949;SDS011;975;48.760;9.152;2023-09-08T11:03:06;8.70;;;5.00;;
1949;SDS011;975;48.760;9.152;2023-09-08T11:05:56;6.43;;;4.85;;
1949;SDS011;975;48.760;9.152;2023-09-08T11:08:45;7.90;;;5.13;;
1949;SDS011;975;48.760;9.152;2023-09-08T11:11:41;11.10;;;5.30;;
1949;SDS011;975;48.760;9.152;2023-09-08T11:14:29;5.82;;;4.40;;
1949;SDS011;975;48.760;9.152;2023-09-08T11:17:24;7.30;;;4.80;;
1949;SDS011;975;48.760;9.152;2023-09-08T11:20:16;6.15;;;5.15;;
1949;SDS011;975;48.760;9.152;2023-09-08T11:23:05;6.90;;;4.78;;
1949;SDS011;975;48.760;9.152;2023-09-08T11:25:53;6.10;;;4.50;;
1949;SDS011;975;48.760;9.152;2023-09-08T11:28:43;7.90;;;5.45;;
1949;SDS011;975;48.760;9.152;2023-09-08T11:31:39;8.80;;;4.47;;
1949;SDS011;975;48.760;9.152;2023-09-08T11:34:30;7.13;;;4.65;;
1949;SDS011;975;48.760;9.152;2023-09-08T11:37:21;7.28;;;5.55;;
1949;SDS011;975;48.760;9.152;2023-09-08T11:40:10;8.23;;;5.07;;
1949;SDS011;975;48.760;9.152;2023-09-08T11:42:59;6.40;;;5.07;;
1949;SDS011;975;48.760;9.152;2023-09-08T11:45:47;7.18;;;5.47;;
1949;SDS011;975;48.760;9.152;2023-09-08T11:48:35;9.07;;;5.20;;
1949;SDS011;975;48.760;9.152;2023-09-08T11:51:23;5.68;;;4.93;;
1949;SDS011;975;48.760;9.152;2023-09-08T11:54:10;7.70;;;5.57;;
1949;SDS011;975;48.760;9.152;2023-09-08T11:57:00;7.60;;;5.10;;
1949;SDS011;975;48.760;9.152;2023-09-08T11:59:48;8.88;;;5.55;;
1949;SDS011;975;48.760;9.152;2023-09-08T12:02:37;9.70;;;5.22;;
1949;SDS011;975;48.760;9.152;2023-09-08T12:05:26;6.68;;;4.90;;
1949;SDS011;975;48.760;9.152;2023-09-08T12:08:14;9.27;;;5.15;;
1949;SDS011;975;48.760;9.152;2023-09-08T12:11:02;8.88;;;5.30;;
1949;SDS011;975;48.760;9.152;2023-09-08T12:13:51;7.97;;;5.93;;
1949;SDS011;975;48.760;9.152;2023-09-08T12:16:47;9.63;;;5.53;;
1949;SDS011;975;48.760;9.152;2023-09-08T12:19:38;10.23;;;5.30;;
1949;SDS011;975;48.760;9.152;2023-09-08T12:22:25;6.43;;;5.22;;
1949;SDS011;975;48.760;9.152;2023-09-08T12:25:16;7.80;;;5.55;;
1949;SDS011;975;48.760;9.152;2023-09-08T12:28:04;10.48;;;5.15;;
1949;SDS011;975;48.760;9.152;2023-09-08T12:30:53;10.45;;;5.43;;
1949;SDS011;975;48.760;9.152;2023-09-08T12:33:41;8.60;;;6.05;;
1949;SDS011;975;48.760;9.152;2023-09-08T12:36:29;11.30;;;5.55;;
1949;SDS011;975;48.760;9.152;2023-09-08T12:39:19;9.25;;;6.03;;
1949;SDS011;975;48.760;9.152;2023-09-08T12:42:07;8.10;;;4.97;;
1949;SDS011;975;48.760;9.152;2023-09-08T12:44:55;7.72;;;5.53;;
1949;SDS011;975;48.760;9.152;2023-09-08T12:47:44;8.35;;;5.07;;
1949;SDS011;975;48.760;9.152;2023-09-08T12:50:32;7.50;;;5.25;;
1949;SDS011;975;48.760;9.152;2023-09-08T12:53:20;7.97;;;5.00;;
1949;SDS011;975;48.760;9.152;2023-09-08T12:56:08;7.20;;;5.15;;
1949;SDS011;975;48.760;9.152;2023-09-08T12:58:56;7.90;;;5.20;;
1949;SDS011;975;48.760;9.152;2023-09-08T13:01:44;7.03;;;4.53;;
1949;SDS011;975;48.760;9.152;2023-09-08T13:04:33;6.95;;;5.22;;
1949;SDS011;975;48.760;9.152;2023-09-08T13:07:21;7.53;;;5.75;;
1949;SDS011;975;48.760;9.152;2023-09-08T13:10:09;10.18;;;5.25;;
1949;SDS011;975;48.760;9.152;2023-09-08T13:12:57;5.97;;;5.03;;
1949;SDS011;975;48.760;9.152;2023-09-08T13:15:45;7.70;;;5.28;;
1949;SDS011;975;48.760;9.152;2023-09-08T13:18:32;7.60;;;5.43;;
1949;SDS011;975;48.760;9.152;2023-09-08T13:21:25;9.48;;;5.55;;
1949;SDS011;975;48.760;9.152;2023-09-08T13:24:13;6.72;;;5.07;;
1949;SDS011;975;48.760;9.152;2023-09-08T13:27:01;6.05;;;4.60;;
1949;SDS011;975;48.760;9.152;2023-09-08T13:29:53;6.32;;;4.38;;
1949;SDS011;975;48.760;9.152;2023-09-08T13:32:41;6.53;;;4.95;;
1949;SDS011;975;48.760;9.152;2023-09-08T13:35:29;7.88;;;5.40;;
1949;SDS011;975;48.760;9.152;2023-09-08T13:38:24;6.63;;;5.22;;
1949;SDS011;975;48.760;9.152;2023-09-08T13:41:12;8.75;;;4.40;;
1949;SDS011;975;48.760;9.152;2023-09-08T13:44:02;7.57;;;4.97;;
1949;SDS011;975;48.760;9.152;2023-09-08T13:46:50;5.30;;;4.80;;
1949;SDS011;975;48.760;9.152;2023-09-08T13:49:40;5.60;;;4.68;;
1949;SDS011;975;48.760;9.152;2023-09-08T13:52:28;6.97;;;4.53;;
1949;SDS011;975;48.760;9.152;2023-09-08T13:55:18;6.60;;;5.05;;
1949;SDS011;975;48.760;9.152;2023-09-08T13:58:09;6.20;;;4.70;;
1949;SDS011;975;48.760;9.152;2023-09-08T14:00:57;5.90;;;4.40;;
1949;SDS011;975;48.760;9.152;2023-09-08T14:03:45;8.23;;;5.45;;
1949;SDS011;975;48.760;9.152;2023-09-08T14:06:35;6.63;;;4.78;;
1949;SDS011;975;48.760;9.152;2023-09-08T14:09:23;5.15;;;4.10;;
1949;SDS011;975;48.760;9.152;2023-09-08T14:12:15;6.25;;;4.78;;
1949;SDS011;975;48.760;9.152;2023-09-08T14:15:03;6.80;;;4.63;;
1949;SDS011;975;48.760;9.152;2023-09-08T14:17:51;6.85;;;4.45;;
1949;SDS011;975;48.760;9.152;2023-09-08T14:20:39;5.07;;;3.80;;
1949;SDS011;975;48.760;9.152;2023-09-08T14:23:27;6.20;;;4.72;;
1949;SDS011;975;48.760;9.152;2023-09-08T14:26:15;6.15;;;4.90;;
1949;SDS011;975;48.760;9.152;2023-09-08T14:29:06;5.63;;;4.53;;
1949;SDS011;975;48.760;9.152;2023-09-08T14:31:54;6.50;;;4.53;;
1949;SDS011;975;48.760;9.152;2023-09-08T14:34:42;6.65;;;4.85;;
1949;SDS011;975;48.760;9.152;2023-09-08T14:37:30;6.13;;;4.65;;
1949;SDS011;975;48.760;9.152;2023-09-08T14:40:21;5.43;;;3.92;;
1949;SDS011;975;48.760;9.152;2023-09-08T14:43:09;8.27;;;4.30;;
1949;SDS011;975;48.760;9.152;2023-09-08T14:45:58;6.75;;;4.63;;
1949;SDS011;975;48.760;9.152;2023-09-08T14:48:48;5.78;;;4.35;;
1949;SDS011;975;48.760;9.152;2023-09-08T14:51:36;4.85;;;4.35;;
1949;SDS011;975;48.760;9.152;2023-09-08T14:54:27;6.47;;;5.10;;
1949;SDS011;975;48.760;9.152;2023-09-08T14:57:15;8.63;;;4.47;;
1949;SDS011;975;48.760;9.152;2023-09-08T15:00:06;6.63;;;4.25;;
1949;SDS011;975;48.760;9.152;2023-09-08T15:02:55;6.93;;;4.40;;
1949;SDS011;975;48.760;9.152;2023-09-08T15:05:44;6.47;;;4.70;;
1949;SDS011;975;48.760;9.152;2023-09-08T15:08:33;5.43;;;4.60;;
1949;SDS011;975;48.760;9.152;2023-09-08T15:11:21;5.03;;;4.15;;
1949;SDS011;975;48.760;9.152;2023-09-08T15:14:09;6.72;;;4.43;;
1949;SDS011;975;48.760;9.152;2023-09-08T15:16:58;5.15;;;4.57;;
1949;SDS011;975;48.760;9.152;2023-09-08T15:19:47;5.78;;;4.47;;
1949;SDS011;975;48.760;9.152;2023-09-08T15:22:35;7.95;;;4.60;;
1949;SDS011;975;48.760;9.152;2023-09-08T15:25:23;5.10;;;4.13;;
1949;SDS011;975;48.760;9.152;2023-09-08T15:28:11;5.28;;;4.10;;
1949;SDS011;975;48.760;9.152;2023-09-08T15:30:58;6.00;;;4.38;;
1949;SDS011;975;48.760;9.152;2023-09-08T15:33:47;5.72;;;4.07;;
1949;SDS011;975;48.760;9.152;2023-09-08T15:36:39;5.88;;;3.88;;
1949;SDS011;975;48.760;9.152;2023-09-08T15:39:26;6.03;;;4.20;;
1949;SDS011;975;48.760;9.152;2023-09-08T15:42:14;6.40;;;4.10;;
1949;SDS011;975;48.760;9.152;2023-09-08T15:45:02;8.20;;;4.50;;
1949;SDS011;975;48.760;9.152;2023-09-08T15:47:50;5.75;;;4.07;;
1949;SDS011;975;48.760;9.152;2023-09-08T15:50:38;4.70;;;3.97;;
1949;SDS011;975;48.760;9.152;2023-09-08T15:53:27;6.70;;;4.20;;
1949;SDS011;975;48.760;9.152;2023-09-08T15:56:15;6.75;;;4.72;;
1949;SDS011;975;48.760;9.152;2023-09-08T15:59:03;6.30;;;4.05;;
1949;SDS011;975;48.760;9.152;2023-09-08T16:01:51;5.72;;;3.90;;
1949;SDS011;975;48.760;9.152;2023-09-08T16:04:39;9.90;;;4.82;;
1949;SDS011;975;48.760;9.152;2023-09-08T16:07:27;4.75;;;3.85;;
1949;SDS011;975;48.760;9.152;2023-09-08T16:10:16;6.25;;;4.13;;
1949;SDS011;975;48.760;9.152;2023-09-08T16:13:04;5.90;;;4.30;;
1949;SDS011;975;48.760;9.152;2023-09-08T16:15:52;8.70;;;4.10;;
1949;SDS011;975;48.760;9.152;2023-09-08T16:18:43;5.72;;;3.90;;
1949;SDS011;975;48.760;9.152;2023-09-08T16:21:31;5.40;;;4.15;;
1949;SDS011;975;48.760;9.152;2023-09-08T16:24:21;6.97;;;4.53;;
1949;SDS011;975;48.760;9.152;2023-09-08T16:27:11;5.72;;;4.63;;
1949;SDS011;975;48.760;9.152;2023-09-08T16:29:59;5.65;;;4.43;;
1949;SDS011;975;48.760;9.152;2023-09-08T16:32:47;7.65;;;4.28;;
1949;SDS011;975;48.760;9.152;2023-09-08T16:35:35;4.82;;;3.88;;
1949;SDS011;975;48.760;9.152;2023-09-08T16:38:24;5.00;;;4.43;;
1949;SDS011;975;48.760;9.152;2023-09-08T16:41:12;8.20;;;4.65;;
1949;SDS011;975;48.760;9.152;2023-09-08T16:44:08;7.30;;;4.25;;
1949;SDS011;975;48.760;9.152;2023-09-08T16:47:07;4.88;;;3.95;;
1949;SDS011;975;48.760;9.152;2023-09-08T16:49:55;8.48;;;4.25;;
1949;SDS011;975;48.760;9.152;2023-09-08T16:52:43;6.97;;;4.70;;
1949;SDS011;975;48.760;9.152;2023-09-08T16:55:30;8.43;;;4.30;;
1949;SDS011;975;48.760;9.152;2023-09-08T16:58:19;10.77;;;5.00;;
1949;SDS011;975;48.760;9.152;2023-09-08T17:01:08;8.57;;;5.38;;
1949;SDS011;975;48.760;9.152;2023-09-08T17:03:56;12.57;;;6.95;;
1949;SDS011;975;48.760;9.152;2023-09-08T17:06:44;10.02;;;6.80;;
1949;SDS011;975;48.760;9.152;2023-09-08T17:09:32;13.38;;;7.10;;
1949;SDS011;975;48.760;9.152;2023-09-08T17:12:20;12.07;;;6.22;;
1949;SDS011;975;48.760;9.152;2023-09-08T17:15:08;11.52;;;5.93;;
1949;SDS011;975;48.760;9.152;2023-09-08T17:17:58;9.43;;;5.43;;
1949;SDS011;975;48.760;9.152;2023-09-08T17:23:33;9.45;;;5.00;;
1949;SDS011;975;48.760;9.152;2023-09-08T17:26:21;9.85;;;4.65;;
1949;SDS011;975;48.760;9.152;2023-09-08T17:29:09;9.75;;;4.47;;
1949;SDS011;975;48.760;9.152;2023-09-08T17:31:57;7.20;;;4.50;;
1949;SDS011;975;48.760;9.152;2023-09-08T17:34:46;6.75;;;4.60;;
1949;SDS011;975;48.760;9.152;2023-09-08T17:40:25;6.70;;;4.55;;
1949;SDS011;975;48.760;9.152;2023-09-08T17:43:13;15.90;;;7.00;;
1949;SDS011;975;48.760;9.152;2023-09-08T17:46:01;10.05;;;6.20;;
1949;SDS011;975;48.760;9.152;2023-09-08T17:48:49;17.45;;;8.35;;
1949;SDS011;975;48.760;9.152;2023-09-08T17:51:39;16.65;;;6.90;;
1949;SDS011;975;48.760;9.152;2023-09-08T17:54:30;8.95;;;5.60;;
1949;SDS011;975;48.760;9.152;2023-09-08T17:57:17;10.65;;;5.88;;
1949;SDS011;975;48.760;9.152;2023-09-08T18:00:06;10.27;;;5.22;;